LOT77T LHBP-EPKK
Flight info
| Callsign | LOT77T |
|---|---|
| Flight time | 0h 42m |
| Altitude | 24000 |
| Route | LITKU Y301 KALIF DCT MEBAN |
| Aircraft | A319/M-SDE3FGHIRWY/LB1 |
Departure
| Time | 2026-05-04 20:23 |
|---|---|
| Airport | Budapest Liszt Ferenc International Airport (LHBP) |
Arrival
| Time | 2026-05-04 21:06 |
|---|---|
| Airport | Kraków John Paul II International Airport (EPKK) |
| Time | Latitude | Longitude | Altitude | Speed | Heading |
|---|---|---|---|---|---|
| 2026-05-04 20:01 | 47.43119 | 19.25965 | 465 ft | 0 kts | 42° |
| 2026-05-04 20:10 | 47.43110 | 19.25953 | 465 ft | 2 kts | 46° |
| 2026-05-04 20:10 | 47.43100 | 19.25938 | 464 ft | 2 kts | 44° |
| 2026-05-04 20:10 | 47.43089 | 19.25922 | 464 ft | 2 kts | 45° |
| 2026-05-04 20:10 | 47.43078 | 19.25906 | 463 ft | 2 kts | 44° |
| 2026-05-04 20:11 | 47.43068 | 19.25891 | 462 ft | 1 kts | 45° |
| 2026-05-04 20:11 | 47.43064 | 19.25886 | 462 ft | 0 kts | 36° |
| 2026-05-04 20:11 | 47.43061 | 19.25884 | 462 ft | 0 kts | 337° |
| 2026-05-04 20:11 | 47.43058 | 19.25887 | 462 ft | 1 kts | 304° |
| 2026-05-04 20:12 | 47.43055 | 19.25893 | 462 ft | 0 kts | 313° |
| 2026-05-04 20:17 | 47.43062 | 19.25881 | 462 ft | 4 kts | 313° |
| 2026-05-04 20:17 | 47.43110 | 19.25811 | 463 ft | 15 kts | 320° |
| 2026-05-04 20:17 | 47.43186 | 19.25684 | 463 ft | 16 kts | 312° |
| 2026-05-04 20:18 | 47.43264 | 19.25557 | 463 ft | 18 kts | 311° |
| 2026-05-04 20:18 | 47.43349 | 19.25436 | 464 ft | 15 kts | 342° |
| 2026-05-04 20:18 | 47.43430 | 19.25499 | 467 ft | 7 kts | 41° |
| 2026-05-04 20:18 | 47.43452 | 19.25529 | 467 ft | 3 kts | 42° |
| 2026-05-04 20:19 | 47.43468 | 19.25550 | 467 ft | 2 kts | 43° |
| 2026-05-04 20:19 | 47.43484 | 19.25572 | 467 ft | 5 kts | 42° |
| 2026-05-04 20:19 | 47.43523 | 19.25625 | 468 ft | 10 kts | 42° |
| 2026-05-04 20:19 | 47.43586 | 19.25709 | 472 ft | 12 kts | 45° |
| 2026-05-04 20:20 | 47.43647 | 19.25791 | 474 ft | 11 kts | 41° |
| 2026-05-04 20:20 | 47.43705 | 19.25870 | 475 ft | 11 kts | 44° |
| 2026-05-04 20:20 | 47.43762 | 19.25949 | 476 ft | 11 kts | 42° |
| 2026-05-04 20:20 | 47.43821 | 19.26028 | 477 ft | 11 kts | 42° |
| 2026-05-04 20:21 | 47.43879 | 19.26107 | 478 ft | 11 kts | 41° |
| 2026-05-04 20:21 | 47.43943 | 19.26193 | 478 ft | 13 kts | 41° |
| 2026-05-04 20:21 | 47.44021 | 19.26299 | 478 ft | 4 kts | 45° |
| 2026-05-04 20:22 | 47.44044 | 19.26339 | 478 ft | 5 kts | 56° |
| 2026-05-04 20:22 | 47.44061 | 19.26393 | 479 ft | 6 kts | 79° |
| 2026-05-04 20:22 | 47.44065 | 19.26460 | 479 ft | 7 kts | 91° |
| 2026-05-04 20:22 | 47.44049 | 19.26543 | 477 ft | 9 kts | 122° |
| 2026-05-04 20:23 | 47.43960 | 19.26699 | 474 ft | 49 kts | 134° |
| 2026-05-04 20:23 | 47.43547 | 19.27363 | 456 ft | 123 kts | 134° |
| 2026-05-04 20:23 | 47.42846 | 19.28501 | 626 ft | 164 kts | 131° |
| 2026-05-04 20:23 | 47.42086 | 19.29821 | 1278 ft | 171 kts | 131° |
| 2026-05-04 20:24 | 47.41397 | 19.31233 | 2093 ft | 174 kts | 124° |
| 2026-05-04 20:24 | 47.40846 | 19.32802 | 2915 ft | 172 kts | 118° |
| 2026-05-04 20:24 | 47.40362 | 19.34344 | 3663 ft | 166 kts | 122° |
| 2026-05-04 20:24 | 47.39811 | 19.35817 | 4280 ft | 168 kts | 123° |
| 2026-05-04 20:25 | 47.39238 | 19.37316 | 4903 ft | 170 kts | 123° |
| 2026-05-04 20:25 | 47.38678 | 19.38846 | 5521 ft | 174 kts | 113° |
| 2026-05-04 20:25 | 47.38614 | 19.40632 | 6135 ft | 182 kts | 75° |
| 2026-05-04 20:25 | 47.39289 | 19.42197 | 6769 ft | 185 kts | 49° |
| 2026-05-04 20:26 | 47.40187 | 19.43535 | 7388 ft | 187 kts | 46° |
| 2026-05-04 20:26 | 47.41114 | 19.44879 | 8010 ft | 189 kts | 46° |
| 2026-05-04 20:26 | 47.42051 | 19.46254 | 8636 ft | 191 kts | 47° |
| 2026-05-04 20:26 | 47.42971 | 19.47628 | 9247 ft | 192 kts | 47° |
| 2026-05-04 20:27 | 47.43896 | 19.49023 | 9863 ft | 192 kts | 47° |
| 2026-05-04 20:27 | 47.44821 | 19.50426 | 10480 ft | 192 kts | 47° |
| 2026-05-04 20:27 | 47.45743 | 19.51830 | 11090 ft | 190 kts | 47° |
| 2026-05-04 20:27 | 47.46642 | 19.53201 | 11687 ft | 186 kts | 47° |
| 2026-05-04 20:28 | 47.47519 | 19.54540 | 12280 ft | 180 kts | 47° |
| 2026-05-04 20:28 | 47.48365 | 19.55832 | 12871 ft | 172 kts | 47° |
| 2026-05-04 20:28 | 47.49172 | 19.57065 | 13438 ft | 163 kts | 47° |
| 2026-05-04 20:28 | 47.49951 | 19.58259 | 13813 ft | 163 kts | 47° |
| 2026-05-04 20:29 | 47.50738 | 19.59468 | 14184 ft | 163 kts | 47° |
| 2026-05-04 20:29 | 47.51528 | 19.60682 | 14545 ft | 164 kts | 47° |
| 2026-05-04 20:29 | 47.52314 | 19.61891 | 14904 ft | 164 kts | 46° |
| 2026-05-04 20:29 | 47.53112 | 19.63115 | 15260 ft | 165 kts | 46° |
| 2026-05-04 20:30 | 47.53905 | 19.64333 | 15598 ft | 167 kts | 46° |
| 2026-05-04 20:30 | 47.54734 | 19.65611 | 15745 ft | 184 kts | 47° |
| 2026-05-04 20:30 | 47.55694 | 19.67113 | 15796 ft | 209 kts | 47° |
| 2026-05-04 20:30 | 47.56721 | 19.68696 | 16201 ft | 218 kts | 45° |
| 2026-05-04 20:31 | 47.57959 | 19.70031 | 16621 ft | 226 kts | 21° |
| 2026-05-04 20:31 | 47.59501 | 19.70375 | 17090 ft | 231 kts | 350° |
| 2026-05-04 20:31 | 47.60971 | 19.69422 | 17602 ft | 234 kts | 319° |
| 2026-05-04 20:31 | 47.62068 | 19.67615 | 18071 ft | 241 kts | 308° |
| 2026-05-04 20:32 | 47.63099 | 19.65610 | 18488 ft | 250 kts | 308° |
| 2026-05-04 20:32 | 47.64206 | 19.63563 | 18868 ft | 261 kts | 310° |
| 2026-05-04 20:32 | 47.65408 | 19.61476 | 19239 ft | 272 kts | 311° |
| 2026-05-04 20:32 | 47.66675 | 19.59359 | 19646 ft | 282 kts | 312° |
| 2026-05-04 20:33 | 47.68021 | 19.57157 | 20040 ft | 293 kts | 313° |
| 2026-05-04 20:33 | 47.69420 | 19.54888 | 20425 ft | 304 kts | 313° |
| 2026-05-04 20:33 | 47.70862 | 19.52560 | 20807 ft | 314 kts | 313° |
| 2026-05-04 20:33 | 47.72374 | 19.50123 | 21200 ft | 324 kts | 313° |
| 2026-05-04 20:34 | 47.73921 | 19.47630 | 21592 ft | 334 kts | 314° |
| 2026-05-04 20:34 | 47.75726 | 19.45433 | 21961 ft | 344 kts | 331° |
| 2026-05-04 20:34 | 47.77973 | 19.44205 | 22342 ft | 353 kts | 350° |
| 2026-05-04 20:34 | 47.80443 | 19.44153 | 22719 ft | 362 kts | 9° |
| 2026-05-04 20:35 | 47.82838 | 19.45375 | 23097 ft | 371 kts | 29° |
| 2026-05-04 20:35 | 47.84910 | 19.47739 | 23491 ft | 380 kts | 41° |
| 2026-05-04 20:35 | 47.86840 | 19.50416 | 23879 ft | 387 kts | 43° |
| 2026-05-04 20:35 | 47.88821 | 19.53194 | 24042 ft | 400 kts | 42° |
| 2026-05-04 20:36 | 47.90914 | 19.56076 | 24047 ft | 416 kts | 39° |
| 2026-05-04 20:36 | 47.93338 | 19.58466 | 24052 ft | 429 kts | 25° |
| 2026-05-04 20:36 | 47.96229 | 19.59878 | 24056 ft | 441 kts | 9° |
| 2026-05-04 20:36 | 47.99302 | 19.60193 | 24066 ft | 452 kts | 0° |
| 2026-05-04 20:37 | 48.02495 | 19.60168 | 24062 ft | 464 kts | 359° |
| 2026-05-04 20:37 | 48.05742 | 19.60098 | 24058 ft | 474 kts | 359° |
| 2026-05-04 20:37 | 48.09096 | 19.60031 | 24057 ft | 482 kts | 359° |
| 2026-05-04 20:37 | 48.12441 | 19.59982 | 24059 ft | 483 kts | 359° |
| 2026-05-04 20:38 | 48.15825 | 19.59947 | 24061 ft | 484 kts | 359° |
| 2026-05-04 20:38 | 48.19189 | 19.59921 | 24060 ft | 484 kts | 359° |
| 2026-05-04 20:38 | 48.22547 | 19.59873 | 24061 ft | 484 kts | 358° |
| 2026-05-04 20:38 | 48.25902 | 19.59654 | 24064 ft | 484 kts | 356° |
| 2026-05-04 20:39 | 48.29254 | 19.59352 | 24063 ft | 484 kts | 356° |
| 2026-05-04 20:39 | 48.32624 | 19.59019 | 24062 ft | 483 kts | 356° |
| 2026-05-04 20:39 | 48.35958 | 19.58683 | 24066 ft | 483 kts | 356° |
| 2026-05-04 20:39 | 48.39315 | 19.58346 | 24069 ft | 484 kts | 356° |
| 2026-05-04 20:40 | 48.42664 | 19.58015 | 24070 ft | 484 kts | 356° |
| 2026-05-04 20:40 | 48.46046 | 19.57685 | 24069 ft | 484 kts | 356° |
| 2026-05-04 20:40 | 48.49387 | 19.57445 | 24074 ft | 485 kts | 358° |
| 2026-05-04 20:40 | 48.52739 | 19.57454 | 24073 ft | 485 kts | 1° |
| 2026-05-04 20:41 | 48.56118 | 19.57657 | 24075 ft | 485 kts | 2° |
| 2026-05-04 20:41 | 48.59479 | 19.57918 | 24079 ft | 485 kts | 2° |
| 2026-05-04 20:41 | 48.62853 | 19.58195 | 24084 ft | 485 kts | 2° |
| 2026-05-04 20:41 | 48.66237 | 19.58470 | 24085 ft | 485 kts | 2° |
| 2026-05-04 20:42 | 48.69600 | 19.58741 | 24086 ft | 485 kts | 2° |
| 2026-05-04 20:42 | 48.72981 | 19.59009 | 24091 ft | 485 kts | 2° |
| 2026-05-04 20:42 | 48.76341 | 19.59274 | 24093 ft | 485 kts | 2° |
| 2026-05-04 20:42 | 48.79691 | 19.59537 | 24091 ft | 485 kts | 2° |
| 2026-05-04 20:43 | 48.83073 | 19.59802 | 24090 ft | 485 kts | 2° |
| 2026-05-04 20:43 | 48.86428 | 19.60065 | 24091 ft | 485 kts | 2° |
| 2026-05-04 20:43 | 48.89779 | 19.60327 | 24094 ft | 485 kts | 2° |
| 2026-05-04 20:43 | 48.93170 | 19.60593 | 24093 ft | 485 kts | 2° |
| 2026-05-04 20:44 | 48.96532 | 19.60857 | 24095 ft | 486 kts | 2° |
| 2026-05-04 20:44 | 48.99906 | 19.61122 | 24096 ft | 486 kts | 2° |
| 2026-05-04 20:44 | 49.03321 | 19.61390 | 24092 ft | 486 kts | 2° |
| 2026-05-04 20:44 | 49.06703 | 19.61658 | 24085 ft | 486 kts | 2° |
| 2026-05-04 20:45 | 49.10050 | 19.61922 | 24087 ft | 486 kts | 2° |
| 2026-05-04 20:45 | 49.13413 | 19.62186 | 23685 ft | 483 kts | 2° |
| 2026-05-04 20:45 | 49.16750 | 19.62447 | 23065 ft | 479 kts | 2° |
| 2026-05-04 20:45 | 49.20081 | 19.62709 | 22427 ft | 475 kts | 2° |
| 2026-05-04 20:46 | 49.23376 | 19.62968 | 21777 ft | 472 kts | 2° |
| 2026-05-04 20:46 | 49.26615 | 19.63222 | 21162 ft | 469 kts | 2° |
| 2026-05-04 20:46 | 49.29868 | 19.63478 | 20520 ft | 466 kts | 2° |
| 2026-05-04 20:46 | 49.33095 | 19.63731 | 19870 ft | 463 kts | 2° |
| 2026-05-04 20:47 | 49.36344 | 19.63987 | 19221 ft | 461 kts | 2° |
| 2026-05-04 20:47 | 49.39489 | 19.64238 | 18597 ft | 454 kts | 2° |
| 2026-05-04 20:47 | 49.42645 | 19.64661 | 17944 ft | 448 kts | 9° |
| 2026-05-04 20:47 | 49.45557 | 19.66168 | 17306 ft | 444 kts | 26° |
| 2026-05-04 20:48 | 49.48101 | 19.68834 | 16641 ft | 440 kts | 41° |
| 2026-05-04 20:48 | 49.50247 | 19.72166 | 16019 ft | 435 kts | 46° |
| 2026-05-04 20:48 | 49.52270 | 19.75522 | 15394 ft | 430 kts | 47° |
| 2026-05-04 20:48 | 49.54303 | 19.78917 | 14754 ft | 426 kts | 47° |
| 2026-05-04 20:49 | 49.56300 | 19.82232 | 14135 ft | 422 kts | 47° |
| 2026-05-04 20:49 | 49.58266 | 19.85472 | 13488 ft | 404 kts | 47° |
| 2026-05-04 20:49 | 49.60127 | 19.88528 | 12853 ft | 382 kts | 46° |
| 2026-05-04 20:49 | 49.61910 | 19.91452 | 12254 ft | 368 kts | 46° |
| 2026-05-04 20:50 | 49.63644 | 19.94294 | 11639 ft | 368 kts | 46° |
| 2026-05-04 20:50 | 49.65385 | 19.97150 | 11210 ft | 363 kts | 46° |
| 2026-05-04 20:50 | 49.67100 | 19.99967 | 11055 ft | 350 kts | 46° |
| 2026-05-04 20:50 | 49.68705 | 20.02606 | 11052 ft | 335 kts | 46° |
| 2026-05-04 20:51 | 49.70268 | 20.05182 | 11043 ft | 320 kts | 46° |
| 2026-05-04 20:51 | 49.71773 | 20.07661 | 11040 ft | 313 kts | 46° |
| 2026-05-04 20:51 | 49.73250 | 20.10096 | 11035 ft | 311 kts | 46° |
| 2026-05-04 20:51 | 49.74727 | 20.12532 | 11021 ft | 311 kts | 46° |
| 2026-05-04 20:52 | 49.76238 | 20.14925 | 10716 ft | 310 kts | 39° |
| 2026-05-04 20:52 | 49.78136 | 20.16378 | 10354 ft | 305 kts | 7° |
| 2026-05-04 20:52 | 49.80199 | 20.16163 | 10012 ft | 297 kts | 337° |
| 2026-05-04 20:52 | 49.81952 | 20.14568 | 9677 ft | 290 kts | 319° |
| 2026-05-04 20:53 | 49.83506 | 20.12632 | 9341 ft | 289 kts | 317° |
| 2026-05-04 20:53 | 49.85077 | 20.10668 | 9003 ft | 288 kts | 318° |
| 2026-05-04 20:53 | 49.86649 | 20.08752 | 8662 ft | 288 kts | 319° |
| 2026-05-04 20:53 | 49.88221 | 20.06872 | 8319 ft | 287 kts | 319° |
| 2026-05-04 20:54 | 49.89813 | 20.04986 | 8048 ft | 284 kts | 319° |
| 2026-05-04 20:54 | 49.91372 | 20.03187 | 8007 ft | 282 kts | 324° |
| 2026-05-04 20:54 | 49.93153 | 20.01853 | 8004 ft | 286 kts | 339° |
| 2026-05-04 20:54 | 49.95047 | 20.01154 | 7996 ft | 275 kts | 346° |
| 2026-05-04 20:55 | 49.96879 | 20.00650 | 7984 ft | 262 kts | 347° |
| 2026-05-04 20:55 | 49.98642 | 20.00180 | 7977 ft | 254 kts | 348° |
| 2026-05-04 20:55 | 50.00408 | 20.00249 | 7954 ft | 258 kts | 18° |
| 2026-05-04 20:55 | 50.01888 | 20.01829 | 7681 ft | 262 kts | 54° |
| 2026-05-04 20:56 | 50.02540 | 20.04412 | 7370 ft | 260 kts | 81° |
| 2026-05-04 20:56 | 50.02833 | 20.07198 | 7042 ft | 260 kts | 82° |
| 2026-05-04 20:56 | 50.03130 | 20.09956 | 6728 ft | 261 kts | 81° |
| 2026-05-04 20:56 | 50.03464 | 20.12755 | 6418 ft | 262 kts | 80° |
| 2026-05-04 20:57 | 50.03824 | 20.15538 | 6091 ft | 263 kts | 79° |
| 2026-05-04 20:57 | 50.04189 | 20.18274 | 5766 ft | 255 kts | 79° |
| 2026-05-04 20:57 | 50.04568 | 20.20908 | 5435 ft | 246 kts | 72° |
| 2026-05-04 20:57 | 50.05484 | 20.23069 | 5107 ft | 238 kts | 35° |
| 2026-05-04 20:58 | 50.06956 | 20.23998 | 4789 ft | 233 kts | 2° |
| 2026-05-04 20:58 | 50.08553 | 20.23713 | 4468 ft | 231 kts | 344° |
| 2026-05-04 20:58 | 50.10135 | 20.23115 | 4142 ft | 233 kts | 344° |
| 2026-05-04 20:58 | 50.11684 | 20.22508 | 4001 ft | 225 kts | 338° |
| 2026-05-04 20:59 | 50.12906 | 20.21194 | 3978 ft | 207 kts | 301° |
| 2026-05-04 20:59 | 50.13376 | 20.19220 | 3979 ft | 188 kts | 269° |
| 2026-05-04 20:59 | 50.13233 | 20.17314 | 3986 ft | 172 kts | 255° |
| 2026-05-04 20:59 | 50.12966 | 20.15551 | 4053 ft | 163 kts | 254° |
| 2026-05-04 21:00 | 50.12703 | 20.13825 | 4028 ft | 163 kts | 255° |
| 2026-05-04 21:00 | 50.12449 | 20.12094 | 4010 ft | 162 kts | 255° |
| 2026-05-04 21:00 | 50.12207 | 20.10378 | 4004 ft | 162 kts | 255° |
| 2026-05-04 21:00 | 50.11970 | 20.08664 | 4004 ft | 162 kts | 255° |
| 2026-05-04 21:01 | 50.11735 | 20.06958 | 3999 ft | 162 kts | 255° |
| 2026-05-04 21:01 | 50.11496 | 20.05221 | 3995 ft | 161 kts | 256° |
| 2026-05-04 21:01 | 50.11289 | 20.03579 | 3857 ft | 153 kts | 256° |
| 2026-05-04 21:01 | 50.11081 | 20.01941 | 3568 ft | 153 kts | 256° |
| 2026-05-04 21:02 | 50.10869 | 20.00356 | 3361 ft | 147 kts | 255° |
| 2026-05-04 21:02 | 50.10656 | 19.98840 | 3160 ft | 141 kts | 254° |
| 2026-05-04 21:02 | 50.10449 | 19.97393 | 2964 ft | 134 kts | 254° |
| 2026-05-04 21:02 | 50.10245 | 19.95981 | 2792 ft | 133 kts | 254° |
| 2026-05-04 21:03 | 50.10042 | 19.94575 | 2618 ft | 133 kts | 254° |
| 2026-05-04 21:03 | 50.09842 | 19.93178 | 2450 ft | 132 kts | 254° |
| 2026-05-04 21:03 | 50.09644 | 19.91784 | 2281 ft | 132 kts | 255° |
| 2026-05-04 21:03 | 50.09444 | 19.90380 | 2109 ft | 132 kts | 255° |
| 2026-05-04 21:04 | 50.09248 | 19.88994 | 1939 ft | 131 kts | 255° |
| 2026-05-04 21:04 | 50.09056 | 19.87628 | 1771 ft | 130 kts | 255° |
| 2026-05-04 21:04 | 50.08859 | 19.86236 | 1596 ft | 130 kts | 255° |
| 2026-05-04 21:04 | 50.08668 | 19.84872 | 1432 ft | 130 kts | 255° |
| 2026-05-04 21:05 | 50.08477 | 19.83508 | 1255 ft | 130 kts | 256° |
| 2026-05-04 21:05 | 50.08281 | 19.82121 | 1084 ft | 130 kts | 256° |
| 2026-05-04 21:05 | 50.08080 | 19.80744 | 940 ft | 132 kts | 257° |
| 2026-05-04 21:05 | 50.07890 | 19.79362 | 805 ft | 130 kts | 258° |
| 2026-05-04 21:06 | 50.07746 | 19.78311 | 800 ft | 64 kts | 257° |
| 2026-05-04 21:06 | 50.07665 | 19.77731 | 800 ft | 51 kts | 256° |
| 2026-05-04 21:06 | 50.07588 | 19.77185 | 800 ft | 49 kts | 259° |
| 2026-05-04 21:06 | 50.07457 | 19.76858 | 800 ft | 26 kts | 169° |
| 2026-05-04 21:07 | 50.07420 | 19.76872 | 800 ft | 0 kts | 165° |
| 2026-05-04 21:07 | 50.07407 | 19.76878 | 800 ft | 4 kts | 166° |
| 2026-05-04 21:08 | 50.07353 | 19.76899 | 800 ft | 13 kts | 164° |
| 2026-05-04 21:08 | 50.07317 | 19.77015 | 800 ft | 14 kts | 77° |
| 2026-05-04 21:08 | 50.07338 | 19.77181 | 800 ft | 16 kts | 78° |
| 2026-05-04 21:08 | 50.07366 | 19.77370 | 800 ft | 18 kts | 78° |
| 2026-05-04 21:09 | 50.07393 | 19.77577 | 800 ft | 20 kts | 78° |
| 2026-05-04 21:09 | 50.07425 | 19.77804 | 800 ft | 22 kts | 78° |
| 2026-05-04 21:09 | 50.07458 | 19.78045 | 800 ft | 23 kts | 78° |
| 2026-05-04 21:09 | 50.07494 | 19.78299 | 800 ft | 24 kts | 78° |
| 2026-05-04 21:10 | 50.07532 | 19.78567 | 800 ft | 25 kts | 78° |
| 2026-05-04 21:10 | 50.07581 | 19.78918 | 800 ft | 44 kts | 79° |
| 2026-05-04 21:10 | 50.07645 | 19.79378 | 800 ft | 42 kts | 77° |
| 2026-05-04 21:10 | 50.07656 | 19.79687 | 800 ft | 14 kts | 162° |
| 2026-05-04 21:11 | 50.07585 | 19.79684 | 800 ft | 8 kts | 246° |
| 2026-05-04 21:11 | 50.07578 | 19.79649 | 800 ft | 0 kts | 255° |